createdAt,value
2018-05-29T00:01:02.109Z,95483.84
2018-05-29T00:03:28.446Z,95476.28
2018-05-29T00:05:54.767Z,95467.57
2018-05-29T00:08:21.223Z,95485.08
2018-05-29T00:10:47.538Z,95479.95
2018-05-29T00:13:13.934Z,95483.55
2018-05-29T00:15:40.391Z,95483.19
2018-05-29T00:18:06.748Z,95480.75
2018-05-29T00:20:33.163Z,95459.35
2018-05-29T00:22:59.523Z,95475.31
2018-05-29T00:25:25.869Z,95488.02
2018-05-29T00:27:52.252Z,95476.91
2018-05-29T00:30:18.568Z,95462.03
2018-05-29T00:32:44.876Z,95480.84
2018-05-29T00:35:11.336Z,95479.95
2018-05-29T00:37:37.840Z,95471.99
2018-05-29T00:40:04.226Z,95480.66
2018-05-29T00:42:30.589Z,95472.08
2018-05-29T00:44:56.988Z,95475.03
2018-05-29T00:47:23.350Z,95477.70
2018-05-29T00:49:49.672Z,95476.36
2018-05-29T00:52:16.087Z,95473.23
2018-05-29T00:54:42.403Z,95449.63
2018-05-29T00:57:08.769Z,95468.53
2018-05-29T00:59:35.084Z,95469.86
2018-05-29T01:02:01.409Z,95470.78
2018-05-29T01:04:27.764Z,95466.78
2018-05-29T01:06:54.237Z,95439.86
2018-05-29T01:09:20.637Z,95449.61
2018-05-29T01:11:47.017Z,95456.13
2018-05-29T01:14:13.568Z,95434.02
2018-05-29T01:16:39.932Z,95451.98
2018-05-29T01:19:06.298Z,95458.33
2018-05-29T01:21:32.810Z,95457.88
2018-05-29T01:23:59.184Z,95442.94
2018-05-29T01:26:25.580Z,95452.22
2018-05-29T01:28:51.969Z,95437.13
2018-05-29T01:31:18.310Z,95444.31
2018-05-29T01:33:44.717Z,95429.93
2018-05-29T01:36:11.280Z,95451.35
2018-05-29T01:38:37.789Z,95425.12
2018-05-29T01:41:04.301Z,95441.65
2018-05-29T01:43:30.811Z,95450.25
2018-05-29T01:45:57.553Z,95420.31
2018-05-29T01:48:24.261Z,95438.52
2018-05-29T01:50:50.592Z,95453.69
2018-05-29T01:53:16.927Z,95442.63
2018-05-29T01:55:43.304Z,95450.72
2018-05-29T01:58:10.053Z,95444.91
2018-05-29T02:00:36.472Z,95448.43
2018-05-29T02:03:02.934Z,95441.67
2018-05-29T02:05:29.516Z,95443.23
2018-05-29T02:07:55.933Z,95450.35
2018-05-29T02:10:22.312Z,95448.30
2018-05-29T02:12:48.643Z,95453.66
2018-05-29T02:15:15.245Z,95451.49
2018-05-29T02:17:41.660Z,95440.31
2018-05-29T02:20:08.035Z,95455.38
2018-05-29T02:22:34.343Z,95449.42
2018-05-29T02:25:00.762Z,95457.63
2018-05-29T02:27:27.080Z,95455.30
2018-05-29T02:29:53.481Z,95466.92
2018-05-29T02:32:19.838Z,95473.88
2018-05-29T02:34:46.210Z,95456.25
2018-05-29T02:37:12.662Z,95476.51
2018-05-29T02:39:39.020Z,95460.50
2018-05-29T02:42:05.429Z,95493.98
2018-05-29T02:44:31.872Z,95500.08
2018-05-29T02:46:58.261Z,95456.77
2018-05-29T02:49:24.745Z,95491.19
2018-05-29T02:51:51.281Z,95497.98
2018-05-29T02:54:17.639Z,95502.44
2018-05-29T02:56:43.999Z,95508.36
2018-05-29T02:59:10.400Z,95503.00
2018-05-29T03:01:36.755Z,95503.62
2018-05-29T03:04:03.133Z,95505.20
2018-05-29T03:06:29.590Z,95479.81
2018-05-29T03:08:56.100Z,95500.47
2018-05-29T03:11:22.505Z,95495.35
2018-05-29T03:13:48.864Z,95502.86
2018-05-29T03:16:15.216Z,95502.91
2018-05-29T03:18:41.578Z,95505.23
2018-05-29T03:21:07.898Z,95509.03
2018-05-29T03:23:34.223Z,95492.22
2018-05-29T03:26:00.621Z,95497.76
2018-05-29T03:28:26.995Z,95510.16
2018-05-29T03:30:53.455Z,95499.45
2018-05-29T03:33:19.791Z,95521.50
2018-05-29T03:35:46.200Z,95513.30
2018-05-29T03:38:12.601Z,95505.36
2018-05-29T03:40:38.989Z,95508.94
2018-05-29T03:43:05.441Z,95523.55
2018-05-29T03:45:32.079Z,95527.25
2018-05-29T03:47:59.317Z,95514.63
2018-05-29T03:50:25.864Z,95508.72
2018-05-29T03:52:52.208Z,95515.17
2018-05-29T03:55:18.752Z,95527.34
2018-05-29T03:57:45.095Z,95516.66
2018-05-29T04:00:11.549Z,95524.22
2018-05-29T04:02:37.968Z,95511.98
2018-05-29T04:05:04.440Z,95516.41
2018-05-29T04:07:30.804Z,95508.16
2018-05-29T04:09:57.177Z,95516.31
2018-05-29T04:12:23.599Z,95522.31
2018-05-29T04:14:49.935Z,95512.64
2018-05-29T04:17:16.269Z,95514.25
2018-05-29T04:19:42.661Z,95518.29
2018-05-29T04:22:09.068Z,95506.38
2018-05-29T04:24:35.389Z,95508.43
2018-05-29T04:27:02.041Z,95510.13
2018-05-29T04:29:28.447Z,95520.23
2018-05-29T04:31:55.143Z,95497.70
2018-05-29T04:34:21.562Z,95521.53
2018-05-29T04:36:48.114Z,95498.94
2018-05-29T04:39:14.477Z,95523.33
2018-05-29T04:41:40.900Z,95513.23
2018-05-29T04:44:07.326Z,95506.55
2018-05-29T04:46:33.680Z,95527.16
2018-05-29T04:49:00.339Z,95522.68
2018-05-29T04:51:26.937Z,95528.36
2018-05-29T04:53:53.869Z,95506.64
2018-05-29T04:56:20.262Z,95532.04
2018-05-29T04:58:46.824Z,95526.56
2018-05-29T05:01:13.309Z,95529.74
2018-05-29T05:03:39.666Z,95522.17
2018-05-29T05:06:05.981Z,95529.46
2018-05-29T05:08:32.396Z,95533.10
2018-05-29T05:10:58.772Z,95535.03
2018-05-29T05:13:25.403Z,95515.59
2018-05-29T05:15:51.884Z,95503.87
2018-05-29T05:18:18.236Z,95519.50
2018-05-29T05:20:44.624Z,95522.31
2018-05-29T05:23:11.169Z,95529.23
2018-05-29T05:25:37.753Z,95522.86
2018-05-29T05:28:06.778Z,95514.75
2018-05-29T05:30:36.908Z,95503.59
2018-05-29T05:33:03.466Z,95518.41
2018-05-29T05:35:32.874Z,95513.63
2018-05-29T05:37:59.259Z,95503.84
2018-05-29T05:40:25.817Z,95511.48
2018-05-29T05:42:52.366Z,95505.91
2018-05-29T05:45:18.795Z,95496.56
2018-05-29T05:47:45.120Z,95508.31
2018-05-29T05:50:11.503Z,95509.94
2018-05-29T05:52:38.474Z,95517.61
2018-05-29T05:55:04.775Z,95510.20
2018-05-29T05:57:31.108Z,95515.56
2018-05-29T05:59:57.463Z,95498.73
2018-05-29T06:02:23.906Z,95475.62
2018-05-29T06:04:50.387Z,95514.46
2018-05-29T06:07:16.848Z,95502.77
2018-05-29T06:09:43.201Z,95513.27
2018-05-29T06:12:09.544Z,95518.80
2018-05-29T06:14:37.108Z,95506.88
2018-05-29T06:17:03.428Z,95504.52
2018-05-29T06:19:29.839Z,95511.02
2018-05-29T06:21:56.431Z,95508.73
2018-05-29T06:24:24.151Z,95509.99
2018-05-29T06:26:50.519Z,95502.81
2018-05-29T06:29:17.084Z,95509.61
2018-05-29T06:31:43.544Z,95507.30
2018-05-29T06:34:09.955Z,95512.70
2018-05-29T06:36:36.622Z,95483.14
2018-05-29T06:39:03.182Z,95505.53
2018-05-29T06:41:29.645Z,95455.77
2018-05-29T06:43:55.975Z,95510.41
2018-05-29T06:46:22.474Z,95488.45
2018-05-29T06:48:48.978Z,95497.83
2018-05-29T06:51:15.432Z,95501.77
2018-05-29T06:53:42.025Z,95472.95
2018-05-29T06:56:08.414Z,95487.45
2018-05-29T06:58:34.808Z,95490.03
2018-05-29T07:01:01.509Z,95492.30
2018-05-29T07:03:27.909Z,95490.02
2018-05-29T07:05:54.404Z,95505.36
2018-05-29T07:08:20.775Z,95511.46
2018-05-29T07:10:47.259Z,95499.13
2018-05-29T07:13:13.766Z,95479.17
2018-05-29T07:15:42.295Z,95492.65
2018-05-29T07:18:08.812Z,95497.52
2018-05-29T07:20:35.359Z,95485.31
2018-05-29T07:23:02.919Z,95496.67
2018-05-29T07:25:30.611Z,95493.39
2018-05-29T07:28:01.540Z,95495.94
2018-05-29T07:30:28.019Z,95500.19
2018-05-29T07:32:54.681Z,95473.59
2018-05-29T07:35:21.323Z,95484.37
2018-05-29T07:37:47.720Z,95455.22
2018-05-29T07:40:14.137Z,95485.14
2018-05-29T07:42:40.553Z,95470.23
2018-05-29T07:45:07.030Z,95480.68
2018-05-29T07:47:33.426Z,95466.75
2018-05-29T07:49:59.941Z,95478.12
2018-05-29T07:52:26.384Z,95489.27
2018-05-29T07:54:52.830Z,95474.46
2018-05-29T07:57:19.290Z,95490.40
2018-05-29T07:59:46.238Z,95470.78
2018-05-29T08:02:12.929Z,95457.23
2018-05-29T08:04:39.639Z,95459.60
2018-05-29T08:07:06.386Z,95446.95
2018-05-29T08:09:32.898Z,95456.11
2018-05-29T08:11:59.385Z,95464.61
2018-05-29T08:14:25.845Z,95445.27
2018-05-29T08:16:52.227Z,95457.61
2018-05-29T08:19:18.697Z,95432.20
2018-05-29T08:21:45.352Z,95442.69
2018-05-29T08:24:11.774Z,95461.04
2018-05-29T08:26:42.945Z,95457.05
2018-05-29T08:29:09.406Z,95434.98
2018-05-29T08:31:35.825Z,95436.80
2018-05-29T08:34:02.470Z,95438.83
2018-05-29T08:36:29.176Z,95445.53
2018-05-29T08:38:55.659Z,95440.89
2018-05-29T08:41:23.230Z,95432.41
2018-05-29T08:43:49.903Z,95466.73
2018-05-29T08:46:16.456Z,95452.47
2018-05-29T08:48:43.141Z,95446.89
2018-05-29T08:51:09.682Z,95457.05
2018-05-29T08:53:36.164Z,95433.85
2018-05-29T08:56:02.805Z,95439.85
2018-05-29T08:58:29.473Z,95432.70
2018-05-29T09:00:56.092Z,95440.48
2018-05-29T09:03:22.825Z,95424.77
2018-05-29T09:05:49.422Z,95423.69
2018-05-29T09:08:18.437Z,95428.98
2018-05-29T09:10:45.076Z,95442.56
2018-05-29T09:13:11.733Z,95429.44
2018-05-29T09:15:38.242Z,95406.50
2018-05-29T09:18:04.711Z,95433.53
2018-05-29T09:20:31.194Z,95401.42
2018-05-29T09:22:57.750Z,95438.27
2018-05-29T09:25:24.401Z,95419.71
2018-05-29T09:27:51.016Z,95427.28
2018-05-29T09:30:19.455Z,95416.48
2018-05-29T09:32:46.343Z,95409.70
2018-05-29T09:35:12.957Z,95409.27
2018-05-29T09:37:39.431Z,95379.31
2018-05-29T09:40:06.009Z,95397.64
2018-05-29T09:42:32.450Z,95416.34
2018-05-29T09:44:58.820Z,95409.70
2018-05-29T09:47:25.431Z,95407.02
2018-05-29T09:49:51.821Z,95399.27
2018-05-29T09:52:18.559Z,95399.86
2018-05-29T09:54:45.288Z,95388.56
2018-05-29T09:57:12.196Z,95387.18
2018-05-29T09:59:39.400Z,95396.08
2018-05-29T10:02:05.993Z,95387.38
2018-05-29T10:04:32.919Z,95406.63
2018-05-29T10:06:59.711Z,95392.91
2018-05-29T10:09:26.585Z,95389.61
2018-05-29T10:11:56.124Z,95385.72
2018-05-29T10:14:23.141Z,95386.27
2018-05-29T10:16:49.914Z,95394.03
2018-05-29T10:19:19.086Z,95389.85
2018-05-29T10:21:48.140Z,95383.30
2018-05-29T10:24:14.616Z,95382.80
2018-05-29T10:26:41.817Z,95379.66
2018-05-29T10:29:08.241Z,95381.16
2018-05-29T10:31:34.580Z,95375.92
2018-05-29T10:34:02.526Z,95361.81
2018-05-29T10:36:30.500Z,95372.84
2018-05-29T10:39:00.643Z,95375.37
2018-05-29T10:41:27.491Z,95368.13
2018-05-29T10:43:55.044Z,95362.16
2018-05-29T10:46:21.994Z,95378.27
2018-05-29T10:48:48.684Z,95364.41
2018-05-29T10:51:15.850Z,95350.02
2018-05-29T10:53:44.786Z,95369.23
2018-05-29T10:56:12.798Z,95370.56
2018-05-29T10:58:39.894Z,95352.61
2018-05-29T11:01:07.308Z,95366.63
2018-05-29T11:03:35.179Z,95341.26
2018-05-29T11:06:04.199Z,95344.73
2018-05-29T11:08:30.951Z,95347.12
2018-05-29T11:11:06.065Z,95358.25
2018-05-29T11:13:32.934Z,95360.41
2018-05-29T11:15:59.411Z,95321.25
2018-05-29T11:18:25.933Z,95322.11
2018-05-29T11:20:52.803Z,95357.64
2018-05-29T11:23:19.788Z,95347.16
2018-05-29T11:25:46.642Z,95326.05
2018-05-29T11:28:13.574Z,95347.01
2018-05-29T11:30:40.358Z,95336.81
2018-05-29T11:33:08.496Z,95342.35
2018-05-29T11:35:35.602Z,95353.95
2018-05-29T11:38:02.305Z,95338.53
2018-05-29T11:40:31.201Z,95330.24
2018-05-29T11:42:58.058Z,95335.58
2018-05-29T11:45:24.516Z,95357.23
2018-05-29T11:47:50.986Z,95358.01
2018-05-29T11:52:58.932Z,95315.19
2018-05-29T11:55:26.054Z,95353.42
2018-05-29T11:57:52.880Z,95356.55
2018-05-29T12:00:19.610Z,95353.38
2018-05-29T12:02:47.105Z,95347.83
2018-05-29T12:05:14.255Z,95341.94
2018-05-29T12:07:41.196Z,95347.36
2018-05-29T12:10:10.804Z,95336.66
2018-05-29T12:12:37.697Z,95332.75
2018-05-29T12:15:05.061Z,95356.19
2018-05-29T12:17:31.948Z,95348.18
2018-05-29T12:19:59.240Z,95352.09
2018-05-29T12:22:26.296Z,95333.54
2018-05-29T12:24:53.130Z,95347.58
2018-05-29T12:27:19.876Z,95345.73
2018-05-29T12:29:47.468Z,95334.80
2018-05-29T12:32:14.407Z,95329.88
2018-05-29T12:34:41.140Z,95340.76
2018-05-29T12:37:08.672Z,95329.73
2018-05-29T12:39:35.425Z,95345.52
2018-05-29T12:42:01.958Z,95324.87
2018-05-29T12:44:28.713Z,95343.97
2018-05-29T12:46:55.296Z,95326.47
2018-05-29T12:49:22.070Z,95330.31
2018-05-29T12:51:48.843Z,95314.15
2018-05-29T12:54:16.421Z,95325.64
2018-05-29T12:56:43.279Z,95312.40
2018-05-29T12:59:10.103Z,95313.89
2018-05-29T13:01:37.285Z,95315.11
2018-05-29T13:04:04.111Z,95304.19
2018-05-29T13:06:31.042Z,95286.91
2018-05-29T13:08:57.883Z,95301.84
2018-05-29T13:11:25.023Z,95306.28
2018-05-29T13:13:51.871Z,95300.98
2018-05-29T13:16:18.494Z,95293.12
2018-05-29T13:18:45.241Z,95318.05
2018-05-29T13:21:12.312Z,95290.13
2018-05-29T13:23:38.992Z,95298.77
2018-05-29T13:26:05.904Z,95305.70
2018-05-29T13:28:32.914Z,95303.63
2018-05-29T13:30:59.769Z,95279.30
2018-05-29T13:33:26.723Z,95302.10
2018-05-29T13:35:53.785Z,95293.59
2018-05-29T13:38:22.630Z,95305.87
2018-05-29T13:40:57.432Z,95302.89
2018-05-29T13:43:24.444Z,95296.89
2018-05-29T13:45:51.266Z,95302.65
2018-05-29T13:48:18.325Z,95297.17
2018-05-29T13:50:46.493Z,95289.88
2018-05-29T13:53:13.141Z,95293.38
2018-05-29T13:55:39.854Z,95286.67
2018-05-29T13:58:06.707Z,95299.59
2018-05-29T14:00:33.729Z,95287.70
2018-05-29T14:03:00.816Z,95282.69
2018-05-29T14:05:28.861Z,95305.66
2018-05-29T14:07:55.759Z,95283.04
2018-05-29T14:10:22.439Z,95287.56
2018-05-29T14:12:49.196Z,95302.19
2018-05-29T14:15:16.186Z,95306.08
2018-05-29T14:17:42.779Z,95298.48
2018-05-29T14:20:09.556Z,95282.33
2018-05-29T14:22:36.825Z,95288.80
2018-05-29T14:25:03.610Z,95285.02
2018-05-29T14:27:31.957Z,95270.84
2018-05-29T14:29:58.953Z,95288.22
2018-05-29T14:32:25.946Z,95267.70
2018-05-29T14:34:52.591Z,95293.05
2018-05-29T14:37:19.317Z,95276.37
2018-05-29T14:39:45.741Z,95264.08
2018-05-29T14:42:12.149Z,95284.16
2018-05-29T14:44:38.480Z,95275.97
2018-05-29T14:47:04.882Z,95264.91
2018-05-29T14:49:31.247Z,95260.14
2018-05-29T14:51:57.656Z,95250.41
2018-05-29T14:54:24.021Z,95246.02
2018-05-29T14:56:50.510Z,95259.31
2018-05-29T14:59:16.891Z,95254.09
2018-05-29T15:01:43.407Z,95256.46
2018-05-29T15:04:09.912Z,95255.44
2018-05-29T15:06:36.302Z,95242.72
2018-05-29T15:09:02.768Z,95247.52
2018-05-29T15:11:29.298Z,95256.94
2018-05-29T15:13:55.747Z,95245.52
2018-05-29T15:16:22.263Z,95246.50
2018-05-29T15:18:48.617Z,95251.56
2018-05-29T15:21:14.965Z,95254.70
2018-05-29T15:23:41.403Z,95246.75
2018-05-29T15:26:07.772Z,95247.02
2018-05-29T15:28:34.321Z,95244.95
2018-05-29T15:31:00.885Z,95242.81
2018-05-29T15:33:27.345Z,95241.27
2018-05-29T15:35:53.748Z,95246.75
2018-05-29T15:38:20.086Z,95239.05
2018-05-29T15:40:46.551Z,95234.61
2018-05-29T15:43:12.914Z,95236.16
2018-05-29T15:45:39.459Z,95213.44
2018-05-29T15:48:05.812Z,95231.14
2018-05-29T15:50:32.262Z,95224.83
2018-05-29T15:52:58.586Z,95214.73
2018-05-29T15:55:25.128Z,95228.64
2018-05-29T15:57:51.484Z,95231.38
2018-05-29T16:00:17.930Z,95229.14
2018-05-29T16:02:44.542Z,95223.91
2018-05-29T16:05:10.974Z,95236.17
2018-05-29T16:07:37.418Z,95233.95
2018-05-29T16:10:03.803Z,95230.80
2018-05-29T16:12:30.342Z,95221.69
2018-05-29T16:14:56.774Z,95224.80
2018-05-29T16:17:23.121Z,95220.03
2018-05-29T16:19:49.473Z,95224.88
2018-05-29T16:22:15.853Z,95228.38
2018-05-29T16:24:42.213Z,95230.91
2018-05-29T16:27:08.732Z,95228.44
2018-05-29T16:29:35.230Z,95232.26
2018-05-29T16:32:01.634Z,95226.11
2018-05-29T16:34:28.042Z,95225.11
2018-05-29T16:36:54.421Z,95231.73
2018-05-29T16:39:20.796Z,95214.59
2018-05-29T16:41:47.219Z,95223.36
2018-05-29T16:44:13.558Z,95228.63
2018-05-29T16:46:39.927Z,95232.86
2018-05-29T16:49:06.376Z,95203.86
2018-05-29T16:51:32.671Z,95214.89
2018-05-29T16:53:59.116Z,95227.59
2018-05-29T16:56:25.715Z,95207.72
2018-05-29T16:58:52.099Z,95220.75
2018-05-29T17:01:18.462Z,95214.13
2018-05-29T17:03:44.843Z,95226.71
2018-05-29T17:06:11.478Z,95222.06
2018-05-29T17:08:37.897Z,95236.98
2018-05-29T17:11:04.261Z,95231.11
2018-05-29T17:13:30.629Z,95221.02
2018-05-29T17:15:56.973Z,95233.62
2018-05-29T17:18:23.680Z,95204.04
2018-05-29T17:20:50.018Z,95233.92
2018-05-29T17:23:17.184Z,95228.95
2018-05-29T17:25:43.679Z,95233.67
2018-05-29T17:28:10.057Z,95232.80
2018-05-29T17:30:36.489Z,95233.05
2018-05-29T17:33:03.140Z,95237.57
2018-05-29T17:35:30.288Z,95176.19
2018-05-29T17:37:56.760Z,95232.19
2018-05-29T17:40:23.095Z,95217.22
2018-05-29T17:42:49.480Z,95241.61
2018-05-29T17:45:16.412Z,95238.51
2018-05-29T17:47:42.772Z,95242.32
2018-05-29T17:50:09.271Z,95246.73
2018-05-29T17:52:35.709Z,95248.30
2018-05-29T17:55:02.127Z,95244.61
2018-05-29T17:57:28.511Z,95250.97
2018-05-29T17:59:55.022Z,95260.55
2018-05-29T18:02:21.457Z,95258.86
2018-05-29T18:04:47.852Z,95244.84
2018-05-29T18:07:14.190Z,95253.34
2018-05-29T18:09:40.656Z,95252.67
2018-05-29T18:12:07.026Z,95267.63
2018-05-29T18:14:34.091Z,95268.10
2018-05-29T18:17:00.902Z,95265.00
2018-05-29T18:19:27.286Z,95271.57
2018-05-29T18:21:53.640Z,95277.77
2018-05-29T18:24:20.031Z,95276.27
2018-05-29T18:26:46.644Z,95275.97
2018-05-29T18:29:13.046Z,95269.39
2018-05-29T18:31:39.481Z,95280.20
2018-05-29T18:34:05.880Z,95286.83
2018-05-29T18:36:32.662Z,95282.77
2018-05-29T18:38:59.111Z,95292.81
2018-05-29T18:41:26.452Z,95294.73
2018-05-29T18:43:52.957Z,95298.86
2018-05-29T18:46:19.296Z,95297.01
2018-05-29T18:48:45.753Z,95301.05
2018-05-29T18:51:12.152Z,95312.39
2018-05-29T18:53:38.593Z,95308.64
2018-05-29T18:56:04.986Z,95314.27
2018-05-29T18:58:31.601Z,95315.09
2018-05-29T19:00:58.038Z,95319.44
2018-05-29T19:03:24.430Z,95324.30
2018-05-29T19:05:51.000Z,95328.72
2018-05-29T19:08:17.395Z,95310.37
2018-05-29T19:10:43.751Z,95317.34
2018-05-29T19:13:10.085Z,95331.53
2018-05-29T19:15:36.509Z,95319.94
2018-05-29T19:18:02.880Z,95335.82
2018-05-29T19:20:29.447Z,95321.20
2018-05-29T19:22:56.157Z,95341.44
2018-05-29T19:25:22.511Z,95341.48
2018-05-29T19:27:48.847Z,95334.53
2018-05-29T19:30:15.217Z,95338.66
2018-05-29T19:32:41.559Z,95339.45
2018-05-29T19:35:08.015Z,95343.42
2018-05-29T19:37:34.404Z,95344.08
2018-05-29T19:40:00.806Z,95336.92
2018-05-29T19:42:27.208Z,95340.09
2018-05-29T19:44:53.537Z,95350.91
2018-05-29T19:47:19.894Z,95358.62
2018-05-29T19:49:46.626Z,95348.60
2018-05-29T19:52:13.005Z,95348.33
2018-05-29T19:54:39.352Z,95356.58
2018-05-29T19:57:05.698Z,95349.31
2018-05-29T19:59:32.206Z,95349.89
2018-05-29T20:01:58.667Z,95351.09
2018-05-29T20:04:25.095Z,95354.53
2018-05-29T20:06:52.433Z,95367.34
2018-05-29T20:09:18.810Z,95364.52
2018-05-29T20:11:45.224Z,95365.66
2018-05-29T20:14:11.672Z,95356.92
2018-05-29T20:16:38.025Z,95360.50
2018-05-29T20:19:04.603Z,95344.05
2018-05-29T20:21:31.169Z,95357.14
2018-05-29T20:23:57.509Z,95354.28
2018-05-29T20:26:23.863Z,95336.25
2018-05-29T20:28:50.250Z,95352.46
2018-05-29T20:31:16.946Z,95340.95
2018-05-29T20:33:43.402Z,95355.36
2018-05-29T20:36:10.064Z,95349.73
2018-05-29T20:38:36.405Z,95356.03
2018-05-29T20:41:02.938Z,95341.31
2018-05-29T20:43:29.408Z,95356.32
2018-05-29T20:45:56.190Z,95357.33
2018-05-29T20:48:22.675Z,95340.95
2018-05-29T20:50:49.726Z,95362.68
2018-05-29T20:53:16.126Z,95359.20
2018-05-29T20:55:42.492Z,95354.33
2018-05-29T20:58:08.828Z,95347.02
2018-05-29T21:00:35.425Z,95347.70
2018-05-29T21:03:02.297Z,95337.39
2018-05-29T21:05:28.892Z,95331.19
2018-05-29T21:07:55.215Z,95347.06
2018-05-29T21:10:21.602Z,95348.82
2018-05-29T21:12:48.193Z,95334.05
2018-05-29T21:15:14.547Z,95325.95
2018-05-29T21:17:40.917Z,95331.91
2018-05-29T21:20:07.468Z,95320.14
2018-05-29T21:22:33.878Z,95312.64
2018-05-29T21:25:00.240Z,95320.97
2018-05-29T21:27:26.920Z,95334.52
2018-05-29T21:29:53.313Z,95326.48
2018-05-29T21:32:19.664Z,95338.77
2018-05-29T21:34:46.293Z,95332.48
2018-05-29T21:37:12.671Z,95327.61
2018-05-29T21:39:39.008Z,95322.50
2018-05-29T21:42:05.342Z,95335.22
2018-05-29T21:44:31.930Z,95331.59
2018-05-29T21:46:58.626Z,95334.00
2018-05-29T21:49:24.980Z,95326.31
2018-05-29T21:51:51.325Z,95331.96
2018-05-29T21:54:17.708Z,95327.27
2018-05-29T21:56:44.289Z,95311.89
2018-05-29T21:59:10.637Z,95315.89
2018-05-29T22:01:37.125Z,95324.73
2018-05-29T22:04:03.475Z,95319.13
2018-05-29T22:06:29.868Z,95317.30
2018-05-29T22:08:56.499Z,95302.22
2018-05-29T22:11:22.882Z,95316.45
2018-05-29T22:13:49.217Z,95320.93
2018-05-29T22:16:15.833Z,95319.69
2018-05-29T22:18:42.158Z,95303.34
2018-05-29T22:21:08.980Z,95300.69
2018-05-29T22:23:35.330Z,95305.45
2018-05-29T22:26:01.671Z,95300.98
2018-05-29T22:28:28.074Z,95309.43
2018-05-29T22:30:54.450Z,95296.36
2018-05-29T22:33:20.878Z,95306.84
2018-05-29T22:35:47.227Z,95307.22
2018-05-29T22:38:13.656Z,95299.48
2018-05-29T22:40:40.332Z,95304.09
2018-05-29T22:43:06.873Z,95300.27
2018-05-29T22:45:33.245Z,95294.94
2018-05-29T22:47:59.630Z,95291.03
2018-05-29T22:50:26.011Z,95284.39
2018-05-29T22:52:52.335Z,95281.02
2018-05-29T22:55:18.704Z,95278.41
2018-05-29T22:57:45.224Z,95291.25
2018-05-29T23:00:11.869Z,95277.66
2018-05-29T23:02:38.193Z,95264.80
2018-05-29T23:05:04.515Z,95274.89
2018-05-29T23:07:30.958Z,95270.47
2018-05-29T23:09:57.468Z,95271.31
2018-05-29T23:12:23.804Z,95256.70
2018-05-29T23:14:50.311Z,95272.63
2018-05-29T23:17:17.660Z,95262.14
2018-05-29T23:19:44.051Z,95267.37
2018-05-29T23:22:10.420Z,95270.05
2018-05-29T23:24:36.761Z,95271.24
2018-05-29T23:27:03.120Z,95260.28
2018-05-29T23:29:29.513Z,95246.31
2018-05-29T23:31:55.889Z,95248.78
2018-05-29T23:34:22.229Z,95256.43
2018-05-29T23:36:48.759Z,95250.08
2018-05-29T23:39:15.457Z,95259.56
2018-05-29T23:41:41.924Z,95244.73
2018-05-29T23:44:08.253Z,95245.89
2018-05-29T23:46:34.583Z,95236.05
2018-05-29T23:49:01.188Z,95246.53
2018-05-29T23:51:27.605Z,95240.69
2018-05-29T23:53:53.953Z,95249.48
2018-05-29T23:56:20.334Z,95236.60
2018-05-29T23:58:46.848Z,95239.69
